createdAt,value
2024-05-09T00:04:31.210Z,3.48
2024-05-09T00:09:34.367Z,3.45
2024-05-09T00:14:37.460Z,3.41
2024-05-09T00:19:40.781Z,3.37
2024-05-09T00:24:44.686Z,3.33
2024-05-09T00:29:48.021Z,3.29
2024-05-09T00:34:51.241Z,3.25
2024-05-09T00:39:54.442Z,3.21
2024-05-09T00:44:57.555Z,3.18
2024-05-09T00:50:01.685Z,3.15
2024-05-09T00:55:06.533Z,3.11
2024-05-09T01:00:18.551Z,3.09
2024-05-09T01:05:30.313Z,3.08
2024-05-09T01:10:35.337Z,3.08
2024-05-09T01:15:39.334Z,3.10
2024-05-09T01:20:44.666Z,3.13
2024-05-09T01:25:48.447Z,3.15
2024-05-09T01:30:51.503Z,3.19
2024-05-09T01:35:54.405Z,3.25
2024-05-09T01:40:58.066Z,3.35
2024-05-09T01:46:01.020Z,3.43
2024-05-09T01:51:04.567Z,3.46
2024-05-09T01:56:08.226Z,3.48
2024-05-09T02:01:11.363Z,3.48
2024-05-09T02:06:14.520Z,3.46
2024-05-09T02:11:17.773Z,3.42
2024-05-09T02:16:20.888Z,3.37
2024-05-09T02:21:24.411Z,3.34
2024-05-09T02:26:27.432Z,3.37
2024-05-09T02:31:30.713Z,3.44
2024-05-09T02:36:34.028Z,3.53
2024-05-09T02:41:36.763Z,3.62
2024-05-09T02:46:40.138Z,3.67
2024-05-09T02:51:43.040Z,3.64
2024-05-09T02:56:46.345Z,3.57
2024-05-09T03:01:49.649Z,3.54
2024-05-09T03:06:53.789Z,3.52
2024-05-09T03:11:57.051Z,3.51
2024-05-09T03:17:00.748Z,3.54
2024-05-09T03:22:04.245Z,3.61
2024-05-09T03:27:07.263Z,3.71
2024-05-09T03:32:10.743Z,3.83
2024-05-09T03:37:14.587Z,3.95
2024-05-09T03:42:17.782Z,4.11
2024-05-09T03:47:20.796Z,4.33
2024-05-09T03:52:23.889Z,4.64
2024-05-09T03:57:26.890Z,5.47
2024-05-09T04:02:30.884Z,7.00
2024-05-09T04:07:34.429Z,8.59
2024-05-09T04:12:38.395Z,10.16
2024-05-09T04:17:41.899Z,11.36
2024-05-09T04:22:45.067Z,12.50
2024-05-09T04:27:48.292Z,13.70
2024-05-09T04:32:52.255Z,14.32
2024-05-09T04:37:55.377Z,14.99
2024-05-09T04:42:58.631Z,15.63
2024-05-09T04:48:02.280Z,16.49
2024-05-09T04:53:09.248Z,17.34
2024-05-09T04:58:13.703Z,17.97
2024-05-09T05:03:17.517Z,18.64
2024-05-09T05:08:22.270Z,19.05
2024-05-09T05:13:25.865Z,19.43
2024-05-09T05:18:28.928Z,19.91
2024-05-09T05:23:32.095Z,20.46
2024-05-09T05:28:35.195Z,20.62
2024-05-09T05:33:38.495Z,21.13
2024-05-09T05:38:41.467Z,22.09
2024-05-09T05:43:44.870Z,22.86
2024-05-09T05:48:48.057Z,23.35
2024-05-09T05:53:51.209Z,23.82
2024-05-09T05:58:54.513Z,24.60
2024-05-09T06:03:57.865Z,25.31
2024-05-09T06:09:01.361Z,25.71
2024-05-09T06:14:05.481Z,25.89
2024-05-09T06:19:08.535Z,26.35
2024-05-09T06:24:11.725Z,27.14
2024-05-09T06:29:14.925Z,28.00
2024-05-09T06:34:21.219Z,28.74
2024-05-09T06:39:24.708Z,29.36
2024-05-09T06:44:27.973Z,30.02
2024-05-09T06:49:31.889Z,30.84
2024-05-09T06:54:34.762Z,31.29
2024-05-09T06:59:37.663Z,30.94
2024-05-09T07:04:40.692Z,30.73
2024-05-09T07:09:43.855Z,31.18
2024-05-09T07:14:46.816Z,31.93
2024-05-09T07:19:51.163Z,32.63
2024-05-09T07:24:54.445Z,33.04
2024-05-09T07:29:57.929Z,33.15
2024-05-09T07:35:00.951Z,33.41
2024-05-09T07:40:07.443Z,33.42
2024-05-09T07:45:29.642Z,33.61
2024-05-09T07:52:23.796Z,33.67
2024-05-09T07:55:58.105Z,34.05
2024-05-09T08:01:04.885Z,34.65
2024-05-09T08:06:08.105Z,35.43
2024-05-09T08:11:11.458Z,35.68
2024-05-09T08:16:15.126Z,35.69
2024-05-09T08:21:19.401Z,35.61
2024-05-09T08:26:22.595Z,36.05
2024-05-09T08:31:25.832Z,36.17
2024-05-09T08:36:29.167Z,36.25
2024-05-09T08:41:33.360Z,36.47
2024-05-09T08:46:37.670Z,36.17
2024-05-09T08:51:40.724Z,35.85
2024-05-09T08:56:46.940Z,35.61
2024-05-09T09:01:50.978Z,35.44
2024-05-09T09:06:58.208Z,35.51
2024-05-09T09:12:01.649Z,35.49
2024-05-09T09:17:17.431Z,35.26
2024-05-09T09:22:21.660Z,35.62
2024-05-09T09:27:24.964Z,35.31
2024-05-09T09:32:29.630Z,35.17
2024-05-09T09:37:32.971Z,34.97
2024-05-09T09:42:37.951Z,34.11
2024-05-09T09:47:42.693Z,32.47
2024-05-09T09:52:46.789Z,30.82
2024-05-09T09:57:49.837Z,30.28
2024-05-09T10:02:53.001Z,30.49
2024-05-09T10:07:57.704Z,30.60
2024-05-09T10:13:08.360Z,29.26
2024-05-09T10:18:11.843Z,27.65
2024-05-09T10:23:32.956Z,26.36
2024-05-09T10:28:39.248Z,25.44
2024-05-09T10:33:48.573Z,24.66
2024-05-09T10:38:53.700Z,24.04
2024-05-09T10:43:56.666Z,23.71
2024-05-09T10:49:01.683Z,23.28
2024-05-09T10:54:06.175Z,22.85
2024-05-09T10:59:09.155Z,22.57
2024-05-09T11:04:13.548Z,22.30
2024-05-09T11:09:16.998Z,22.06
2024-05-09T11:14:20.103Z,21.98
2024-05-09T11:19:23.452Z,21.89
2024-05-09T11:24:26.728Z,21.85
2024-05-09T11:29:40.274Z,21.80
2024-05-09T11:34:43.361Z,21.75
2024-05-09T11:39:46.837Z,21.66
2024-05-09T11:44:49.701Z,21.55
2024-05-09T11:49:56.163Z,21.49
2024-05-09T11:54:59.260Z,21.49
2024-05-09T12:00:05.604Z,21.46
2024-05-09T12:05:11.334Z,21.47
2024-05-09T12:10:19.625Z,21.51
2024-05-09T12:15:25.842Z,21.50
2024-05-09T12:20:36.113Z,21.41
2024-05-09T12:25:42.701Z,21.38
2024-05-09T12:30:45.880Z,21.35
2024-05-09T12:35:50.884Z,21.32
2024-05-09T12:40:54.510Z,21.31
2024-05-09T12:45:57.939Z,21.33
2024-05-09T12:51:00.989Z,21.35
2024-05-09T12:56:05.993Z,21.40
2024-05-09T13:01:09.623Z,21.48
2024-05-09T13:06:12.876Z,21.44
2024-05-09T13:11:16.116Z,21.25
2024-05-09T13:16:19.628Z,21.17
2024-05-09T13:21:23.217Z,21.20
2024-05-09T13:26:26.231Z,21.24
2024-05-09T13:31:29.250Z,21.26
2024-05-09T13:36:32.467Z,21.17
2024-05-09T13:41:35.652Z,21.22
2024-05-09T13:46:38.741Z,21.23
2024-05-09T13:51:41.768Z,21.19
2024-05-09T13:56:45.276Z,21.08
2024-05-09T14:01:48.580Z,21.09
2024-05-09T14:06:52.413Z,21.07
2024-05-09T14:11:55.377Z,21.01
2024-05-09T14:16:58.646Z,20.78
2024-05-09T14:22:02.494Z,20.69
2024-05-09T14:27:06.149Z,20.61
2024-05-09T14:32:09.056Z,20.61
2024-05-09T14:37:12.223Z,20.51
2024-05-09T14:42:15.508Z,20.24
2024-05-09T14:47:18.503Z,20.09
2024-05-09T14:52:22.252Z,19.94
2024-05-09T14:57:25.872Z,19.69
2024-05-09T15:02:29.103Z,19.63
2024-05-09T15:07:33.043Z,19.71
2024-05-09T15:12:35.989Z,19.83
2024-05-09T15:17:39.601Z,19.95
2024-05-09T15:22:42.694Z,20.05
2024-05-09T15:27:47.493Z,20.09
2024-05-09T15:32:51.204Z,20.08
2024-05-09T15:37:54.846Z,20.06
2024-05-09T15:42:58.411Z,20.04
2024-05-09T15:48:03.016Z,19.94
2024-05-09T15:53:06.970Z,19.76
2024-05-09T15:58:10.945Z,19.61
2024-05-09T16:03:15.058Z,19.52
2024-05-09T16:08:19.830Z,19.47
2024-05-09T16:13:22.942Z,19.44
2024-05-09T16:18:26.293Z,19.29
2024-05-09T16:23:29.389Z,19.16
2024-05-09T16:28:32.996Z,19.04
2024-05-09T16:33:36.345Z,18.94
2024-05-09T16:38:40.940Z,18.83
2024-05-09T16:43:43.879Z,18.71
2024-05-09T16:48:47.434Z,18.57
2024-05-09T16:53:50.311Z,18.45
2024-05-09T16:58:53.351Z,18.31
2024-05-09T17:03:56.897Z,18.15
2024-05-09T17:09:08.301Z,18.00
2024-05-09T17:14:15.056Z,17.88
2024-05-09T17:19:18.350Z,17.77
2024-05-09T17:24:21.389Z,17.66
2024-05-09T17:29:24.791Z,17.54
2024-05-09T17:34:28.115Z,17.40
2024-05-09T17:39:31.672Z,17.23
2024-05-09T17:44:34.614Z,17.05
2024-05-09T17:49:37.654Z,16.84
2024-05-09T17:54:40.764Z,16.60
2024-05-09T17:59:44.248Z,16.32
2024-05-09T18:04:47.255Z,16.03
2024-05-09T18:09:50.819Z,15.73
2024-05-09T18:14:53.861Z,15.43
2024-05-09T18:19:56.881Z,15.14
2024-05-09T18:25:00.018Z,14.86
2024-05-09T18:30:07.082Z,14.56
2024-05-09T18:35:11.621Z,14.24
2024-05-09T18:40:20.994Z,13.95
2024-05-09T18:45:31.118Z,13.68
2024-05-09T18:50:38.593Z,13.44
2024-05-09T18:55:44.190Z,13.22
2024-05-09T19:00:50.224Z,13.03
2024-05-09T19:05:55.042Z,12.84
2024-05-09T19:10:59.175Z,12.65
2024-05-09T19:16:03.562Z,12.48
2024-05-09T19:21:06.694Z,12.35
2024-05-09T19:26:10.003Z,12.26
2024-05-09T19:31:13.119Z,12.15
2024-05-09T19:36:20.591Z,12.03
2024-05-09T19:41:24.647Z,11.90
2024-05-09T19:46:28.303Z,11.78
2024-05-09T19:51:33.484Z,11.66
2024-05-09T19:56:36.919Z,11.60
2024-05-09T20:01:40.714Z,11.56
2024-05-09T20:06:46.489Z,11.53
2024-05-09T20:11:49.787Z,11.47
2024-05-09T20:16:53.003Z,11.37
2024-05-09T20:21:56.518Z,11.24
2024-05-09T20:26:59.557Z,11.10
2024-05-09T20:32:02.882Z,10.98
2024-05-09T20:37:06.081Z,10.89
2024-05-09T20:42:09.455Z,10.81
2024-05-09T20:47:12.907Z,10.70
2024-05-09T20:52:16.256Z,10.58
2024-05-09T20:57:19.538Z,10.47
2024-05-09T21:02:23.244Z,10.37
2024-05-09T21:07:26.275Z,10.29
2024-05-09T21:12:29.661Z,10.23
2024-05-09T21:17:33.870Z,10.20
2024-05-09T21:22:38.337Z,10.18
2024-05-09T21:27:42.029Z,10.18
2024-05-09T21:32:46.008Z,10.21
2024-05-09T21:37:49.140Z,10.24
2024-05-09T21:42:52.218Z,10.26
2024-05-09T21:47:55.534Z,10.26
2024-05-09T21:52:59.156Z,10.24
2024-05-09T21:58:02.419Z,10.16
2024-05-09T22:03:08.362Z,10.05
2024-05-09T22:08:12.274Z,9.94
2024-05-09T22:13:16.936Z,9.84
2024-05-09T22:18:20.335Z,9.77
2024-05-09T22:23:23.286Z,9.72
2024-05-09T22:28:26.424Z,9.68
2024-05-09T22:33:29.728Z,9.63
2024-05-09T22:38:33.009Z,9.54
2024-05-09T22:43:36.010Z,9.43
2024-05-09T22:48:39.337Z,9.30
2024-05-09T22:53:42.534Z,9.19
2024-05-09T22:58:45.458Z,9.06
2024-05-09T23:03:49.529Z,8.94
2024-05-09T23:08:53.083Z,8.81
2024-05-09T23:13:56.042Z,8.66
2024-05-09T23:18:59.162Z,8.54
2024-05-09T23:24:01.979Z,8.45
2024-05-09T23:29:05.000Z,8.38
2024-05-09T23:34:08.232Z,8.36
2024-05-09T23:39:11.402Z,8.38
2024-05-09T23:44:14.206Z,8.42
2024-05-09T23:49:17.357Z,8.49
2024-05-09T23:54:20.408Z,8.57
2024-05-09T23:59:23.414Z,8.65
